Time;durP1;ratioP1;P1;durP2;ratioP2;P2;SDS_P1;SDS_P2;PMS_P1;PMS_P2;Temp;Humidity;BMP_temperature;BMP_pressure;BME280_temperature;BME280_humidity;BME280_pressure;Samples;Min_cycle;Max_cycle;Signal;HPM_P1;HPM_P2
2022/01/01 00:00:28;;;;;;;40.60;28.13;;;12.60;95.30;;;;;;2081743;28;20124;-87
2022/01/01 00:01:28;;;;;;;39.30;28.30;;;12.60;95.30;;;;;;2081399;28;20068;-87
2022/01/01 00:02:29;;;;;;;41.95;31.60;;;12.60;95.30;;;;;;2090122;28;20041;-87
2022/01/01 00:03:29;;;;;;;43.75;30.75;;;12.60;95.30;;;;;;2098163;28;20115;-87
2022/01/01 00:04:30;;;;;;;44.40;31.50;;;12.60;95.30;;;;;;2098855;28;20123;-87
2022/01/01 00:05:31;;;;;;;44.70;31.05;;;12.60;95.30;;;;;;2098777;28;20450;-87
2022/01/01 00:06:31;;;;;;;41.42;30.70;;;12.50;95.30;;;;;;2098828;28;20051;-87
2022/01/01 00:07:33;;;;;;;42.55;31.05;;;12.60;95.30;;;;;;2098831;28;20041;-87
2022/01/01 00:08:33;;;;;;;41.92;30.23;;;12.60;95.30;;;;;;2098709;28;20032;-87
2022/01/01 00:09:34;;;;;;;44.58;31.77;;;12.60;95.30;;;;;;2089808;28;20120;-87
2022/01/01 00:10:35;;;;;;;47.25;33.72;;;12.60;95.50;;;;;;2073081;28;20520;-87
2022/01/01 00:11:35;;;;;;;50.22;34.72;;;12.60;95.30;;;;;;2089881;28;20048;-87
2022/01/01 00:12:36;;;;;;;46.80;33.85;;;12.50;95.20;;;;;;2096829;28;20044;-87
2022/01/01 00:13:37;;;;;;;46.58;32.63;;;12.60;95.30;;;;;;2081568;28;20041;-87
2022/01/01 00:14:38;;;;;;;48.25;33.15;;;12.60;95.50;;;;;;2089717;28;20044;-87
2022/01/01 00:15:39;;;;;;;46.85;32.63;;;12.60;95.30;;;;;;2089751;28;20060;-86
2022/01/01 00:16:39;;;;;;;48.42;32.78;;;12.60;95.30;;;;;;2073426;28;20165;-86
2022/01/01 00:17:41;;;;;;;45.50;32.85;;;12.60;95.30;;;;;;2066046;28;20392;-87
2022/01/01 00:18:42;;;;;;;43.03;31.20;;;12.60;95.30;;;;;;2089771;28;20514;-87
2022/01/01 00:19:43;;;;;;;43.20;30.50;;;12.60;95.30;;;;;;2098703;28;20040;-87
2022/01/01 00:20:44;;;;;;;38.90;28.95;;;12.60;95.30;;;;;;2098630;28;20129;-87
2022/01/01 00:21:44;;;;;;;38.00;28.60;;;12.60;95.30;;;;;;2089745;28;20079;-87
2022/01/01 00:22:45;;;;;;;38.42;27.38;;;12.60;95.30;;;;;;2089631;28;20403;-87
2022/01/01 00:23:46;;;;;;;38.67;26.60;;;12.60;95.30;;;;;;2098372;28;20041;-87
2022/01/01 00:24:46;;;;;;;41.05;27.00;;;12.60;95.20;;;;;;2097781;28;20498;-87
2022/01/01 00:25:47;;;;;;;34.97;25.02;;;12.60;95.20;;;;;;2097721;28;20451;-87
2022/01/01 00:26:48;;;;;;;39.90;26.40;;;12.60;95.20;;;;;;2081572;28;20060;-86
2022/01/01 00:27:48;;;;;;;34.55;24.60;;;12.60;95.20;;;;;;2065292;28;20038;-87
2022/01/01 00:28:49;;;;;;;33.17;23.45;;;12.60;95.30;;;;;;2064408;28;20038;-87
2022/01/01 00:29:50;;;;;;;36.58;23.77;;;12.60;95.30;;;;;;2089839;28;20037;-87
2022/01/01 00:30:50;;;;;;;32.50;22.88;;;12.60;95.30;;;;;;2098030;28;20553;-87
2022/01/01 00:31:51;;;;;;;34.38;22.77;;;12.60;95.30;;;;;;2098514;28;20096;-87
2022/01/01 00:32:52;;;;;;;31.85;21.73;;;12.60;95.30;;;;;;2086306;28;20497;-87
2022/01/01 00:33:52;;;;;;;30.58;21.88;;;12.60;95.30;;;;;;2089700;28;20132;-86
2022/01/01 00:34:53;;;;;;;31.05;21.58;;;12.60;95.30;;;;;;2097662;28;20043;-86
2022/01/01 00:35:53;;;;;;;28.17;20.55;;;12.60;95.30;;;;;;2093822;28;20040;-86
2022/01/01 00:36:54;;;;;;;32.15;21.05;;;12.60;95.30;;;;;;2081954;28;20076;-87
2022/01/01 00:37:55;;;;;;;27.80;20.02;;;12.60;95.30;;;;;;2092357;28;20041;-88
2022/01/01 00:38:55;;;;;;;31.33;20.83;;;12.60;95.30;;;;;;2082846;28;20040;-88
2022/01/01 00:39:56;;;;;;;29.98;20.40;;;12.60;95.30;;;;;;2081243;28;20181;-87
2022/01/01 00:40:57;;;;;;;31.42;21.10;;;12.60;95.30;;;;;;2089416;28;20036;-86
2022/01/01 00:41:57;;;;;;;29.90;21.38;;;12.60;95.30;;;;;;2081378;28;20387;-86
2022/01/01 00:43:00;;;;;;;28.55;20.33;;;12.60;95.30;;;;;;2073609;28;20412;-85
2022/01/01 00:44:01;;;;;;;34.03;20.67;;;12.60;95.50;;;;;;2082461;28;20500;-84
2022/01/01 00:45:01;;;;;;;28.58;19.83;;;12.60;95.20;;;;;;2097504;28;20033;-85
2022/01/01 00:46:02;;;;;;;31.25;19.83;;;12.60;95.20;;;;;;2081940;28;20128;-84
2022/01/01 00:47:03;;;;;;;31.05;19.38;;;12.60;95.30;;;;;;2097949;28;20037;-85
2022/01/01 00:48:04;;;;;;;28.30;18.15;;;12.60;95.30;;;;;;2106649;28;20414;-86
2022/01/01 00:49:05;;;;;;;27.75;17.92;;;12.60;95.30;;;;;;2106876;28;20036;-84
2022/01/01 00:50:05;;;;;;;27.10;19.08;;;12.60;95.30;;;;;;2106982;28;20032;-87
2022/01/01 00:51:06;;;;;;;26.35;17.63;;;12.60;95.30;;;;;;2104826;28;20043;-87
2022/01/01 00:52:07;;;;;;;28.25;18.05;;;12.60;95.30;;;;;;2090206;28;20399;-87
2022/01/01 00:53:08;;;;;;;26.52;17.75;;;12.60;95.30;;;;;;2071459;28;20073;-86
2022/01/01 00:54:08;;;;;;;25.73;17.10;;;12.60;95.30;;;;;;2089496;28;20025;-88
2022/01/01 00:55:10;;;;;;;26.20;16.48;;;12.50;95.30;;;;;;2081463;28;20088;-87
2022/01/01 00:56:10;;;;;;;26.30;17.23;;;12.50;95.30;;;;;;2089528;28;20364;-87
2022/01/01 00:57:11;;;;;;;26.35;16.75;;;12.60;95.30;;;;;;2090440;28;20033;-87
2022/01/01 00:58:11;;;;;;;28.27;17.88;;;12.60;95.30;;;;;;2066059;28;20030;-88
2022/01/01 00:59:12;;;;;;;24.85;17.23;;;12.50;95.30;;;;;;2079440;28;20069;-86
2022/01/01 01:00:13;;;;;;;26.25;16.85;;;12.60;95.30;;;;;;2081288;28;20177;-88
2022/01/01 01:01:14;;;;;;;24.83;16.95;;;12.60;95.30;;;;;;2089012;28;20033;-88
2022/01/01 01:02:14;;;;;;;28.17;17.20;;;12.60;95.30;;;;;;2096777;28;20037;-88
2022/01/01 01:03:17;;;;;;;28.67;18.15;;;12.60;95.30;;;;;;2092747;28;20136;-88
2022/01/01 01:04:18;;;;;;;29.92;17.98;;;12.50;95.30;;;;;;2089662;28;20052;-88
2022/01/01 01:05:18;;;;;;;29.95;19.23;;;12.60;95.30;;;;;;2089555;28;20530;-87
2022/01/01 01:06:19;;;;;;;27.75;18.00;;;12.50;95.30;;;;;;2072970;28;20030;-85
2022/01/01 01:07:19;;;;;;;29.38;18.00;;;12.60;95.30;;;;;;2081374;28;20400;-88
2022/01/01 01:08:20;;;;;;;29.27;18.77;;;12.50;95.30;;;;;;2081125;28;20530;-87
2022/01/01 01:09:21;;;;;;;26.65;18.33;;;12.50;95.50;;;;;;2081037;28;20037;-87
2022/01/01 01:10:22;;;;;;;30.70;18.88;;;12.50;95.30;;;;;;2080888;28;20076;-86
2022/01/01 01:11:23;;;;;;;31.45;19.42;;;12.50;95.30;;;;;;2081195;28;20140;-86
2022/01/01 01:12:27;;;;;;;31.00;20.20;;;12.50;95.30;;;;;;2081134;28;20033;-86
2022/01/01 01:13:31;;;;;;;32.15;21.08;;;12.50;95.30;;;;;;2074130;28;20038;-87
2022/01/01 01:14:39;;;;;;;30.33;20.02;;;12.50;95.30;;;;;;2090319;28;20025;-87
2022/01/01 01:15:40;;;;;;;30.85;19.20;;;12.50;95.30;;;;;;2088907;28;20132;-87
2022/01/01 01:16:41;;;;;;;27.30;19.90;;;12.50;95.50;;;;;;2097623;28;20044;-87
2022/01/01 01:17:41;;;;;;;31.85;19.70;;;12.50;95.30;;;;;;2098968;28;20035;-87
2022/01/01 01:18:42;;;;;;;28.55;19.95;;;12.50;95.30;;;;;;2097731;28;20127;-87
2022/01/01 01:19:43;;;;;;;27.27;19.02;;;12.50;95.30;;;;;;2089411;28;20398;-87
2022/01/01 01:20:43;;;;;;;27.50;19.98;;;12.50;95.30;;;;;;2080229;28;20052;-87
2022/01/01 01:21:45;;;;;;;25.00;18.33;;;12.50;95.30;;;;;;2089495;28;20033;-86
2022/01/01 01:22:46;;;;;;;29.40;19.13;;;12.50;95.30;;;;;;2076023;28;20056;-86
2022/01/01 01:23:48;;;;;;;28.17;19.40;;;12.50;95.30;;;;;;2081023;28;20049;-87
2022/01/01 01:24:48;;;;;;;31.27;18.92;;;12.50;95.30;;;;;;2089466;28;20041;-87
2022/01/01 01:25:49;;;;;;;30.20;19.95;;;12.50;95.30;;;;;;2097463;28;20059;-87
2022/01/01 01:26:50;;;;;;;28.58;18.63;;;12.50;95.30;;;;;;2089247;28;20037;-87
2022/01/01 01:27:51;;;;;;;29.83;20.30;;;12.50;95.30;;;;;;2089320;28;20037;-87
2022/01/01 01:28:52;;;;;;;29.90;19.77;;;12.50;95.30;;;;;;2090183;28;20128;-86
2022/01/01 01:29:53;;;;;;;31.73;20.58;;;12.50;95.30;;;;;;2089901;28;20048;-86
2022/01/01 01:30:54;;;;;;;30.58;19.95;;;12.50;95.30;;;;;;2090029;28;20037;-87
2022/01/01 01:31:54;;;;;;;27.85;19.20;;;12.50;95.30;;;;;;2086252;28;20041;-87
2022/01/01 01:32:55;;;;;;;28.60;19.33;;;12.50;95.30;;;;;;2072860;28;20067;-86
2022/01/01 01:33:56;;;;;;;29.23;19.10;;;12.50;95.30;;;;;;2080980;28;20095;-87
2022/01/01 01:34:57;;;;;;;28.95;18.90;;;12.50;95.30;;;;;;2098007;28;20025;-86
2022/01/01 01:35:57;;;;;;;28.15;18.60;;;12.40;95.30;;;;;;2091871;28;20131;-86
2022/01/01 01:36:58;;;;;;;31.50;18.48;;;12.40;95.30;;;;;;2089510;28;20041;-88
2022/01/01 01:37:59;;;;;;;26.17;18.05;;;12.50;95.30;;;;;;2097615;28;20123;-87
2022/01/01 01:39:00;;;;;;;27.90;18.55;;;12.50;95.30;;;;;;2097540;28;20127;-87
2022/01/01 01:40:02;;;;;;;30.52;20.25;;;12.50;95.30;;;;;;2098151;28;20044;-86
2022/01/01 01:41:07;;;;;;;28.83;20.13;;;12.40;95.30;;;;;;2097830;28;20092;-87
2022/01/01 01:42:08;;;;;;;30.17;19.60;;;12.40;95.30;;;;;;2098202;28;20041;-87
2022/01/01 01:43:11;;;;;;;32.42;20.80;;;12.50;95.30;;;;;;2098063;28;20456;-87
2022/01/01 01:44:36;;;;;;;29.38;20.30;;;12.50;95.30;;;;;;2096555;28;20044;-88
2022/01/01 01:45:37;;;;;;;29.27;20.02;;;12.40;95.30;;;;;;2097819;28;20032;-87
2022/01/01 01:46:39;;;;;;;28.88;19.95;;;12.40;95.30;;;;;;2083830;28;20037;-87
2022/01/01 01:47:40;;;;;;;29.92;20.15;;;12.40;95.30;;;;;;2078435;28;20807;-86
2022/01/01 01:48:41;;;;;;;30.58;20.30;;;12.50;95.30;;;;;;2073018;28;20467;-86
2022/01/01 01:49:44;;;;;;;28.48;20.50;;;12.50;95.60;;;;;;2065155;28;20030;-87
2022/01/01 01:50:45;;;;;;;29.80;20.23;;;12.50;95.30;;;;;;2072087;28;20038;-87
2022/01/01 01:51:46;;;;;;;30.08;20.80;;;12.40;95.30;;;;;;2080744;28;20132;-87
2022/01/01 01:52:54;;;;;;;31.13;20.95;;;12.50;95.60;;;;;;2090849;28;20040;-86
2022/01/01 01:53:54;;;;;;;33.03;21.77;;;12.40;95.30;;;;;;2097330;28;20040;-87
2022/01/01 01:54:55;;;;;;;34.05;22.65;;;12.40;95.30;;;;;;2089187;28;20040;-87
2022/01/01 01:55:58;;;;;;;29.67;21.00;;;12.40;95.30;;;;;;2088843;28;20086;-87
2022/01/01 01:56:59;;;;;;;35.28;22.65;;;12.40;95.30;;;;;;2097542;28;20055;-87
2022/01/01 01:58:00;;;;;;;30.23;21.40;;;12.40;95.30;;;;;;2089086;28;20073;-86
2022/01/01 01:59:01;;;;;;;30.23;21.90;;;12.40;95.30;;;;;;2106032;28;20036;-87
2022/01/01 02:00:04;;;;;;;29.27;20.73;;;12.40;95.60;;;;;;2114243;28;20036;-87
2022/01/01 02:01:20;;;;;;;29.58;22.00;;;12.40;95.30;;;;;;2097863;28;20380;-87
2022/01/01 02:02:21;;;;;;;33.53;23.35;;;12.40;95.30;;;;;;2089942;28;20067;-88
2022/01/01 02:03:22;;;;;;;35.72;22.83;;;12.40;95.30;;;;;;2097639;28;20028;-88
2022/01/01 02:04:22;;;;;;;36.70;23.48;;;12.40;95.30;;;;;;2097564;28;20451;-88
2022/01/01 02:05:23;;;;;;;37.38;23.27;;;12.40;95.30;;;;;;2097372;28;20068;-88
2022/01/01 02:06:24;;;;;;;36.85;23.50;;;12.40;95.30;;;;;;2097892;28;20136;-87
2022/01/01 02:07:25;;;;;;;33.55;21.65;;;12.50;95.30;;;;;;2098211;28;20085;-87
2022/01/01 02:08:26;;;;;;;35.50;22.00;;;12.40;95.50;;;;;;2090519;28;20106;-87
2022/01/01 02:09:27;;;;;;;28.77;20.38;;;12.40;95.30;;;;;;2089227;28;20043;-87
2022/01/01 02:10:28;;;;;;;29.70;20.40;;;12.40;95.30;;;;;;2087906;28;20515;-87
2022/01/01 02:11:30;;;;;;;30.27;19.58;;;12.40;95.30;;;;;;2089334;28;20044;-87
2022/01/01 02:12:30;;;;;;;27.58;18.73;;;12.50;95.30;;;;;;2091044;28;20040;-87
2022/01/01 02:15:25;;;;;;;29.65;18.75;;;12.50;95.30;;;;;;2085032;28;20048;-87
2022/01/01 02:16:49;;;;;;;;;;;12.50;95.30;;;;;;2088179;28;20067;-87
2022/01/01 02:17:33;;;;;;;22.30;15.65;;;12.40;95.20;;;;;;2093025;28;19974;-87
2022/01/01 02:18:33;;;;;;;25.38;17.02;;;12.40;95.50;;;;;;2093194;28;20487;-87
2022/01/01 02:20:01;;;;;;;24.80;16.65;;;12.40;95.20;;;;;;2098936;28;20098;-87
2022/01/01 02:21:01;;;;;;;25.88;15.65;;;12.40;95.20;;;;;;2098924;28;20032;-86
2022/01/01 02:22:04;;;;;;;27.70;16.90;;;12.40;95.20;;;;;;2090564;28;20473;-88
2022/01/01 02:23:06;;;;;;;24.58;16.05;;;12.40;95.20;;;;;;2082702;28;20075;-87
2022/01/01 02:24:07;;;;;;;25.13;16.10;;;12.40;95.20;;;;;;2090707;28;20427;-88
2022/01/01 02:25:08;;;;;;;23.88;16.13;;;12.40;95.20;;;;;;2082237;28;20037;-87
2022/01/01 02:26:11;;;;;;;26.77;16.85;;;12.40;95.30;;;;;;2066256;28;20054;-88
2022/01/01 02:27:12;;;;;;;26.52;16.17;;;12.40;95.50;;;;;;2074593;28;20041;-88
2022/01/01 02:28:13;;;;;;;23.73;15.85;;;12.40;95.20;;;;;;2085543;28;20120;-87
2022/01/01 02:29:14;;;;;;;28.35;15.90;;;12.40;95.30;;;;;;2082802;28;20030;-86
2022/01/01 02:30:16;;;;;;;22.38;15.35;;;12.40;95.30;;;;;;2075197;28;20037;-85
2022/01/01 02:31:17;;;;;;;26.13;16.27;;;12.40;95.30;;;;;;2096100;28;20514;-86
2022/01/01 02:32:18;;;;;;;24.90;16.17;;;12.40;95.30;;;;;;2099609;28;20137;-87
2022/01/01 02:33:19;;;;;;;26.38;16.30;;;12.40;95.30;;;;;;2087558;28;20040;-86
2022/01/01 02:34:20;;;;;;;25.95;15.75;;;12.40;95.30;;;;;;2095328;28;20453;-86
2022/01/01 02:35:21;;;;;;;22.52;14.98;;;12.40;95.30;;;;;;2086907;28;20512;-86
2022/01/01 02:36:36;;;;;;;26.05;16.15;;;12.40;95.30;;;;;;2088099;28;20080;-85
2022/01/01 02:37:39;;;;;;;26.45;15.27;;;12.40;95.30;;;;;;2091154;28;20036;-86
2022/01/01 02:38:39;;;;;;;30.70;17.42;;;12.40;95.30;;;;;;2099372;28;20406;-87
2022/01/01 02:39:40;;;;;;;23.85;15.30;;;12.40;95.30;;;;;;2099397;28;20033;-87
2022/01/01 02:40:41;;;;;;;25.75;16.50;;;12.40;95.30;;;;;;2099427;28;20060;-87
2022/01/01 02:41:42;;;;;;;25.90;16.48;;;12.40;95.30;;;;;;2099540;28;20102;-87
2022/01/01 02:42:43;;;;;;;24.40;15.63;;;12.40;95.30;;;;;;2099527;28;20036;-87
2022/01/01 02:43:44;;;;;;;22.27;15.05;;;12.40;95.30;;;;;;2099554;28;20441;-87
2022/01/01 02:44:46;;;;;;;25.38;16.17;;;12.40;95.30;;;;;;2099663;28;20036;-87
2022/01/01 02:45:46;;;;;;;25.10;16.10;;;12.40;95.30;;;;;;2073215;28;20519;-87
2022/01/01 02:46:47;;;;;;;25.08;15.98;;;12.40;95.30;;;;;;2074443;28;20125;-86
2022/01/01 02:47:48;;;;;;;25.83;15.35;;;12.40;95.30;;;;;;2086818;28;20033;-87
2022/01/01 02:48:48;;;;;;;24.48;15.27;;;12.40;95.30;;;;;;2090320;28;20076;-87
2022/01/01 02:49:49;;;;;;;23.80;15.05;;;12.40;95.30;;;;;;2098637;28;20044;-87
2022/01/01 02:50:53;;;;;;;26.48;14.98;;;12.40;95.30;;;;;;2082317;28;20574;-87
2022/01/01 02:51:53;;;;;;;24.85;15.68;;;12.40;95.30;;;;;;2082302;28;20140;-87
2022/01/01 02:52:54;;;;;;;22.55;15.07;;;12.40;95.30;;;;;;2074086;28;20034;-88
2022/01/01 02:53:54;;;;;;;23.08;14.88;;;12.40;95.30;;;;;;2082333;28;20045;-87
2022/01/01 02:54:55;;;;;;;24.50;14.88;;;12.40;95.30;;;;;;2082159;28;20150;-88
2022/01/01 02:55:56;;;;;;;24.98;14.48;;;12.40;95.30;;;;;;2087701;28;20044;-87
2022/01/01 02:56:57;;;;;;;23.15;14.40;;;12.40;95.30;;;;;;2072419;28;20042;-88
2022/01/01 02:57:57;;;;;;;24.42;15.20;;;12.40;95.30;;;;;;2078275;28;20030;-87
2022/01/01 02:58:58;;;;;;;24.70;14.88;;;12.40;95.30;;;;;;2091199;28;20029;-87
2022/01/01 02:59:59;;;;;;;23.63;14.93;;;12.40;95.30;;;;;;2091179;28;20043;-88
2022/01/01 03:00:59;;;;;;;21.63;14.18;;;12.40;95.30;;;;;;2090925;28;20449;-87
2022/01/01 03:02:00;;;;;;;26.38;15.05;;;12.40;95.30;;;;;;2082224;28;20041;-88
2022/01/01 03:03:00;;;;;;;26.13;15.02;;;12.40;95.30;;;;;;2082062;28;20091;-88
2022/01/01 03:04:01;;;;;;;23.52;14.63;;;12.40;95.30;;;;;;2073992;28;20045;-88
2022/01/01 03:05:02;;;;;;;23.70;14.40;;;12.40;95.30;;;;;;2088616;28;20152;-87
2022/01/01 03:06:03;;;;;;;21.98;14.45;;;12.40;95.30;;;;;;2090392;28;20033;-87
2022/01/01 03:07:04;;;;;;;22.20;14.27;;;12.40;95.40;;;;;;2082363;28;20172;-87
2022/01/01 03:08:05;;;;;;;23.83;14.00;;;12.40;95.40;;;;;;2082071;28;20073;-88
2022/01/01 03:09:06;;;;;;;22.58;14.10;;;12.40;95.40;;;;;;2096701;28;20438;-87
2022/01/01 03:10:07;;;;;;;22.85;13.93;;;12.40;95.40;;;;;;2091217;28;20086;-88
2022/01/01 03:11:08;;;;;;;21.23;14.13;;;12.40;95.40;;;;;;2090275;28;20127;-87
2022/01/01 03:12:10;;;;;;;19.17;13.50;;;12.40;95.40;;;;;;2099395;28;20041;-87
2022/01/01 03:13:11;;;;;;;22.48;13.55;;;12.40;95.40;;;;;;2099321;28;20044;-88
2022/01/01 03:14:17;;;;;;;21.33;13.45;;;12.40;95.40;;;;;;2082106;28;20060;-87
2022/01/01 03:15:17;;;;;;;21.48;13.80;;;12.40;95.40;;;;;;2083888;28;20132;-88
2022/01/01 03:16:18;;;;;;;21.02;13.43;;;12.40;95.60;;;;;;2090296;28;20060;-87
2022/01/01 03:17:19;;;;;;;21.00;13.90;;;12.40;95.40;;;;;;2094519;28;20068;-87
2022/01/01 03:18:19;;;;;;;22.10;14.35;;;12.40;95.40;;;;;;2106129;28;20174;-88
2022/01/01 03:19:20;;;;;;;24.05;13.98;;;12.40;95.40;;;;;;2099655;28;20037;-88
2022/01/01 03:20:20;;;;;;;20.90;13.43;;;12.40;95.40;;;;;;2088234;28;20500;-88
2022/01/01 03:21:21;;;;;;;22.88;14.32;;;12.40;95.40;;;;;;2081762;28;20132;-86
2022/01/01 03:22:22;;;;;;;20.58;13.80;;;12.40;95.40;;;;;;2074054;28;20519;-87
2022/01/01 03:23:22;;;;;;;23.92;14.07;;;12.40;95.40;;;;;;2073033;28;20128;-88
2022/01/01 03:24:24;;;;;;;21.73;13.10;;;12.40;95.40;;;;;;2082031;28;20049;-88
2022/01/01 03:25:24;;;;;;;22.88;14.05;;;12.40;95.40;;;;;;2073771;28;20046;-87
2022/01/01 03:26:25;;;;;;;25.15;13.95;;;12.40;95.40;;;;;;2082069;28;20180;-88
2022/01/01 03:27:26;;;;;;;22.70;14.05;;;12.40;95.40;;;;;;2082011;28;20034;-88
2022/01/01 03:28:27;;;;;;;22.27;14.30;;;12.40;95.40;;;;;;2073921;28;20073;-88
2022/01/01 03:29:30;;;;;;;23.55;14.80;;;12.50;95.40;;;;;;2082095;28;20018;-88
2022/01/01 03:30:31;;;;;;;24.35;14.35;;;12.40;95.40;;;;;;2082014;28;20128;-88
2022/01/01 03:31:32;;;;;;;22.75;13.60;;;12.40;95.40;;;;;;2081928;28;20029;-87
2022/01/01 03:32:32;;;;;;;20.67;14.25;;;12.50;95.40;;;;;;2090742;28;20048;-87
2022/01/01 03:33:33;;;;;;;21.35;14.27;;;12.40;95.40;;;;;;2090980;28;20110;-87
2022/01/01 03:34:34;;;;;;;21.25;14.38;;;12.50;95.40;;;;;;2090738;28;20077;-87
2022/01/01 03:35:34;;;;;;;21.67;13.45;;;12.50;95.40;;;;;;2081797;28;20389;-88
2022/01/01 03:36:35;;;;;;;24.60;14.07;;;12.50;95.50;;;;;;2081809;28;20376;-88
2022/01/01 03:37:36;;;;;;;21.38;13.70;;;12.50;95.40;;;;;;2090369;28;20033;-88
2022/01/01 03:38:37;;;;;;;23.40;14.25;;;12.40;95.40;;;;;;2073588;28;20045;-87
2022/01/01 03:39:38;;;;;;;23.58;14.98;;;12.40;95.40;;;;;;2073791;28;20057;-88
2022/01/01 03:40:38;;;;;;;25.52;14.77;;;12.50;95.50;;;;;;2073492;28;20086;-87
2022/01/01 03:41:39;;;;;;;23.48;14.90;;;12.40;95.40;;;;;;2073704;28;20049;-87
2022/01/01 03:42:39;;;;;;;24.40;14.43;;;12.50;95.40;;;;;;2074206;28;20041;-88
2022/01/01 03:43:40;;;;;;;21.73;14.23;;;12.50;95.40;;;;;;2065525;28;20073;-87
2022/01/01 03:44:41;;;;;;;23.20;14.32;;;12.40;95.40;;;;;;2065555;28;20031;-87
2022/01/01 03:45:42;;;;;;;22.15;14.50;;;12.50;95.40;;;;;;2082060;28;20188;-88
2022/01/01 03:46:42;;;;;;;22.75;14.18;;;12.40;95.40;;;;;;2078260;28;20528;-88
2022/01/01 03:47:43;;;;;;;25.70;14.90;;;12.40;95.40;;;;;;2074479;28;20042;-88
2022/01/01 03:48:44;;;;;;;25.73;14.85;;;12.40;95.40;;;;;;2085575;28;20084;-88
2022/01/01 03:49:46;;;;;;;23.77;15.02;;;12.50;95.50;;;;;;2081540;28;20473;-88
2022/01/01 03:50:46;;;;;;;21.73;14.18;;;12.50;95.50;;;;;;2082047;28;20046;-87
2022/01/01 03:51:47;;;;;;;21.88;14.02;;;12.40;95.70;;;;;;2098229;28;20044;-88
2022/01/01 03:52:48;;;;;;;26.42;15.20;;;12.50;95.50;;;;;;2090061;28;20072;-87
2022/01/01 03:53:48;;;;;;;26.05;14.85;;;12.50;95.50;;;;;;2090139;28;20045;-88
2022/01/01 03:54:49;;;;;;;23.23;14.60;;;12.50;95.50;;;;;;2094166;28;20074;-88
2022/01/01 03:55:50;;;;;;;23.17;15.35;;;12.40;95.50;;;;;;2090063;28;20083;-88
2022/01/01 03:56:51;;;;;;;22.88;15.27;;;12.40;95.50;;;;;;2090081;28;20051;-88
2022/01/01 03:57:51;;;;;;;20.83;14.57;;;12.50;95.50;;;;;;2090157;28;20057;-87
2022/01/01 03:58:52;;;;;;;23.00;14.98;;;12.50;95.50;;;;;;2081816;28;20045;-87
2022/01/01 03:59:53;;;;;;;22.73;15.13;;;12.50;95.50;;;;;;2081448;28;20038;-88
2022/01/01 04:00:55;;;;;;;26.33;16.17;;;12.50;95.50;;;;;;2089824;28;20594;-88
2022/01/01 04:01:56;;;;;;;22.98;15.25;;;12.50;95.50;;;;;;2098861;28;20044;-86
2022/01/01 04:03:06;;;;;;;30.30;17.02;;;12.50;95.50;;;;;;2098766;28;20465;-88
2022/01/01 04:04:07;;;;;;;22.38;14.60;;;12.50;95.50;;;;;;2098763;28;20044;-88
2022/01/01 04:05:08;;;;;;;23.05;15.02;;;12.50;95.50;;;;;;2089889;28;20033;-88
2022/01/01 04:06:09;;;;;;;24.55;15.80;;;12.50;95.50;;;;;;2081727;28;20384;-87
2022/01/01 04:07:10;;;;;;;23.15;15.45;;;12.50;95.50;;;;;;2073619;28;20428;-88
2022/01/01 04:08:12;;;;;;;24.77;15.93;;;12.50;95.50;;;;;;2089995;28;20091;-87
2022/01/01 04:09:14;;;;;;;26.67;16.35;;;12.50;95.50;;;;;;2097902;28;20026;-88
2022/01/01 04:10:15;;;;;;;23.85;15.68;;;12.50;95.50;;;;;;2080809;28;20037;-88
2022/01/01 04:11:15;;;;;;;26.05;15.88;;;12.50;95.50;;;;;;2073375;28;20034;-88
2022/01/01 04:12:16;;;;;;;26.20;16.50;;;12.50;95.50;;;;;;2081451;28;20180;-87
2022/01/01 04:13:17;;;;;;;26.30;16.02;;;12.50;95.50;;;;;;2073517;28;20093;-88
2022/01/01 04:14:17;;;;;;;21.45;15.00;;;12.50;95.50;;;;;;2065422;28;20041;-88
2022/01/01 04:15:18;;;;;;;24.23;15.80;;;12.50;95.50;;;;;;2065319;28;20420;-88
2022/01/01 04:16:19;;;;;;;27.05;16.67;;;12.50;95.50;;;;;;2081980;28;20512;-85
2022/01/01 04:17:20;;;;;;;23.45;15.80;;;12.50;95.50;;;;;;2081780;28;20037;-86
2022/01/01 04:18:37;;;;;;;24.33;15.60;;;12.50;95.60;;;;;;2081813;28;20569;-86
2022/01/01 04:19:39;;;;;;;25.42;14.95;;;12.50;95.60;;;;;;2099095;28;20047;-85
2022/01/01 04:20:41;;;;;;;21.73;15.90;;;12.50;95.50;;;;;;2098825;28;20116;-85
2022/01/01 04:21:42;;;;;;;23.65;16.10;;;12.50;95.60;;;;;;2089960;28;20045;-85
2022/01/01 04:22:43;;;;;;;24.20;15.27;;;12.50;95.50;;;;;;2082044;28;20026;-86
2022/01/01 04:23:45;;;;;;;23.40;15.77;;;12.50;95.50;;;;;;2089706;28;20582;-87
2022/01/01 04:24:46;;;;;;;22.77;15.32;;;12.50;95.60;;;;;;2089845;28;20490;-87
2022/01/01 04:25:47;;;;;;;22.85;15.55;;;12.50;95.50;;;;;;2096520;28;20056;-88
2022/01/01 04:26:48;;;;;;;24.23;15.23;;;12.50;95.50;;;;;;2097447;28;20555;-88
2022/01/01 04:27:50;;;;;;;22.95;15.00;;;12.50;95.50;;;;;;2081628;28;20033;-87
2022/01/01 04:28:51;;;;;;;21.48;14.88;;;12.50;95.60;;;;;;2081714;28;20026;-88
2022/01/01 04:29:51;;;;;;;21.35;14.55;;;12.50;95.60;;;;;;2098096;28;20046;-88
2022/01/01 04:30:52;;;;;;;26.13;14.43;;;12.50;95.50;;;;;;2089755;28;20132;-88
2022/01/01 04:31:53;;;;;;;25.92;14.55;;;12.50;95.60;;;;;;2075830;28;20424;-88
2022/01/01 04:32:54;;;;;;;22.90;14.55;;;12.50;95.60;;;;;;2089781;28;20032;-87
2022/01/01 04:33:54;;;;;;;21.38;14.75;;;12.50;95.60;;;;;;2081792;28;20042;-88
2022/01/01 04:34:56;;;;;;;20.23;14.85;;;12.50;95.60;;;;;;2080910;28;20037;-88
2022/01/01 04:35:56;;;;;;;24.70;15.15;;;12.50;95.60;;;;;;2089372;28;20037;-88
2022/01/01 04:37:03;;;;;;;23.85;15.43;;;12.50;95.60;;;;;;2081542;28;20041;-88
2022/01/01 04:38:06;;;;;;;22.20;14.55;;;12.50;95.60;;;;;;2074162;28;20044;-88
2022/01/01 04:39:07;;;;;;;22.77;14.00;;;12.50;95.60;;;;;;2082884;28;20559;-87
2022/01/01 04:40:09;;;;;;;23.98;14.07;;;12.50;95.60;;;;;;2097752;28;20036;-88
2022/01/01 04:41:12;;;;;;;19.17;13.48;;;12.40;95.50;;;;;;2089442;28;20033;-88
2022/01/01 04:42:13;;;;;;;24.23;14.10;;;12.50;95.60;;;;;;2089684;28;20041;-87
2022/01/01 04:43:13;;;;;;;19.98;13.48;;;12.50;95.60;;;;;;2090328;28;20388;-88
2022/01/01 04:44:14;;;;;;;24.88;14.23;;;12.50;95.60;;;;;;2089285;28;20049;-88
2022/01/01 04:45:15;;;;;;;21.73;14.00;;;12.50;95.60;;;;;;2081271;28;20119;-87
2022/01/01 04:46:16;;;;;;;23.63;14.73;;;12.50;95.60;;;;;;2089662;28;20036;-87
2022/01/01 04:47:16;;;;;;;20.83;14.30;;;12.50;95.60;;;;;;2090292;28;20047;-87
2022/01/01 04:48:17;;;;;;;21.10;13.68;;;12.50;95.60;;;;;;2090368;28;20037;-88
2022/01/01 04:49:18;;;;;;;20.08;12.93;;;12.50;95.60;;;;;;2089627;28;20033;-88
2022/01/01 04:50:18;;;;;;;20.90;14.10;;;12.50;95.60;;;;;;2089983;28;20041;-87
2022/01/01 04:51:19;;;;;;;20.60;12.82;;;12.50;95.60;;;;;;2089562;28;20037;-87
2022/01/01 04:52:20;;;;;;;19.73;13.35;;;12.50;95.60;;;;;;2073370;28;20053;-87
2022/01/01 04:53:20;;;;;;;21.75;13.25;;;12.50;95.60;;;;;;2089498;28;20159;-86
2022/01/01 04:54:21;;;;;;;21.15;12.48;;;12.50;95.60;;;;;;2065012;28;20042;-87
2022/01/01 04:55:23;;;;;;;20.30;12.50;;;12.50;95.60;;;;;;2073054;28;20427;-87
2022/01/01 04:56:24;;;;;;;19.40;13.20;;;12.50;95.60;;;;;;2081504;28;20037;-87
2022/01/01 04:57:30;;;;;;;16.85;12.43;;;12.50;95.60;;;;;;2089330;28;20065;-86
2022/01/01 04:58:30;;;;;;;19.90;12.45;;;12.50;95.60;;;;;;2081988;28;20087;-87
2022/01/01 04:59:31;;;;;;;17.45;11.43;;;12.50;95.60;;;;;;2081897;28;20582;-87
2022/01/01 05:00:31;;;;;;;18.23;12.20;;;12.50;95.60;;;;;;2089500;28;20199;-87
2022/01/01 05:01:32;;;;;;;19.50;12.90;;;12.50;95.60;;;;;;2096652;28;20036;-87
2022/01/01 05:02:33;;;;;;;19.92;12.70;;;12.50;95.60;;;;;;2081302;28;20069;-87
2022/01/01 05:03:33;;;;;;;20.10;12.30;;;12.50;95.60;;;;;;2081289;28;20049;-87
2022/01/01 05:04:36;;;;;;;19.98;12.52;;;12.50;95.90;;;;;;2089581;28;20037;-87
2022/01/01 05:05:36;;;;;;;21.48;11.68;;;12.50;95.60;;;;;;2089686;28;20533;-86
2022/01/01 05:06:40;;;;;;;17.40;11.90;;;12.50;95.60;;;;;;2089032;28;20045;-87
2022/01/01 05:07:43;;;;;;;17.60;11.38;;;12.50;95.60;;;;;;2084898;28;20033;-87
2022/01/01 05:08:44;;;;;;;24.05;12.38;;;12.50;95.60;;;;;;2081194;28;20052;-87
2022/01/01 05:09:44;;;;;;;20.50;12.00;;;12.50;95.90;;;;;;2065540;28;20041;-87
2022/01/01 05:10:45;;;;;;;17.35;11.63;;;12.50;95.60;;;;;;2080943;28;20447;-87
2022/01/01 05:11:47;;;;;;;18.10;11.70;;;12.50;95.60;;;;;;2089376;28;20045;-87
2022/01/01 05:12:47;;;;;;;20.73;11.15;;;12.50;95.60;;;;;;2089995;28;20039;-87
2022/01/01 05:13:48;;;;;;;18.52;10.52;;;12.50;95.60;;;;;;2089461;28;20044;-87